Time;durP1;ratioP1;P1;durP2;ratioP2;P2;SDS_P1;SDS_P2;PMS_P1;PMS_P2;Temp;Humidity;BMP_temperature;BMP_pressure;BME280_temperature;BME280_humidity;BME280_pressure;Samples;Min_cycle;Max_cycle;Signal;HPM_P1;HPM_P2
2022/11/19 00:01:43;;;;;;;4.97;1.45;;;7.80;1.00;;;;;;4991413;28;20737;-53
2022/11/19 00:04:08;;;;;;;6.20;1.20;;;8.30;1.00;;;;;;4992753;28;20407;-56
2022/11/19 00:06:34;;;;;;;4.68;1.20;;;8.80;1.00;;;;;;5010837;28;20373;-53
2022/11/19 00:08:59;;;;;;;5.30;1.10;;;8.20;1.00;;;;;;5009990;28;20463;-54
2022/11/19 00:14:13;;;;;;;6.63;2.35;;;7.80;1.00;;;;;;5009720;28;20462;-55
2022/11/19 00:16:39;;;;;;;8.20;2.00;;;7.80;1.00;;;;;;5030259;28;20466;-57
2022/11/19 00:19:05;;;;;;;5.30;1.60;;;7.80;1.00;;;;;;5029225;28;21217;-54
2022/11/19 00:21:30;;;;;;;5.50;1.60;;;7.80;1.00;;;;;;5030133;28;20386;-54
2022/11/19 00:23:56;;;;;;;8.00;1.80;;;7.80;1.00;;;;;;5029543;28;20505;-54
2022/11/19 00:26:23;;;;;;;5.18;1.80;;;7.80;1.00;;;;;;5030301;28;20399;-54
2022/11/19 00:28:49;;;;;;;7.90;2.00;;;9.50;1.00;;;;;;5029997;28;20451;-59
2022/11/19 00:31:15;;;;;;;6.30;2.17;;;7.90;1.00;;;;;;5028952;28;20411;-54
2022/11/19 00:33:42;;;;;;;5.32;1.70;;;9.30;1.00;;;;;;5029688;28;20497;-54
2022/11/19 00:36:10;;;;;;;6.07;2.38;;;8.00;1.00;;;;;;5029289;28;20429;-57
2022/11/19 00:38:36;;;;;;;6.67;2.00;;;7.90;1.00;;;;;;5030228;28;20477;-54
2022/11/19 00:41:02;;;;;;;4.80;1.50;;;7.90;1.00;;;;;;5011231;28;20425;-55
2022/11/19 00:43:45;;;;;;;5.45;1.50;;;8.00;1.00;;;;;;5029674;28;20510;-54
2022/11/19 00:46:21;;;;;;;5.47;2.10;;;7.80;1.00;;;;;;5028975;28;20379;-56
2022/11/19 00:48:48;;;;;;;5.17;2.00;;;7.80;1.00;;;;;;5029886;28;20379;-53
2022/11/19 00:51:16;;;;;;;5.70;1.60;;;7.80;1.00;;;;;;5028932;28;20698;-54
2022/11/19 00:53:41;;;;;;;5.43;1.75;;;7.70;1.00;;;;;;5029658;28;20713;-55
2022/11/19 00:56:10;;;;;;;6.60;1.87;;;7.70;1.00;;;;;;5028968;28;20383;-55
2022/11/19 00:58:37;;;;;;;5.35;1.63;;;8.80;1.00;;;;;;5030183;28;20413;-54
2022/11/19 01:01:03;;;;;;;5.25;1.48;;;7.60;1.00;;;;;;5029351;28;20413;-54
2022/11/19 01:03:29;;;;;;;5.00;1.40;;;7.70;1.00;;;;;;5029859;28;20438;-54
2022/11/19 01:05:55;;;;;;;5.70;1.80;;;7.70;1.00;;;;;;5029218;28;20787;-59
2022/11/19 01:08:21;;;;;;;5.23;1.60;;;8.80;1.00;;;;;;5029453;28;20389;-54
2022/11/19 01:10:46;;;;;;;5.80;1.42;;;8.00;1.00;;;;;;5029748;28;20371;-54
2022/11/19 01:15:57;;;;;;;5.05;1.50;;;8.10;1.00;;;;;;5028721;28;20380;-55
2022/11/19 01:18:22;;;;;;;6.43;1.80;;;7.80;1.00;;;;;;5029344;28;20383;-54
2022/11/19 01:20:48;;;;;;;6.20;2.00;;;7.80;1.00;;;;;;5029396;28;20387;-54
2022/11/19 01:23:14;;;;;;;5.57;1.73;;;7.80;1.00;;;;;;5028415;28;20379;-54
2022/11/19 01:25:40;;;;;;;6.60;2.40;;;7.80;1.00;;;;;;5028888;28;20390;-54
2022/11/19 01:28:05;;;;;;;5.40;1.88;;;7.70;1.00;;;;;;5028363;28;20390;-54
2022/11/19 01:30:32;;;;;;;5.80;1.93;;;7.60;1.00;;;;;;5029115;28;20391;-54
2022/11/19 01:32:57;;;;;;;5.53;2.10;;;7.50;1.00;;;;;;5027865;28;20403;-56
2022/11/19 01:35:23;;;;;;;6.23;2.00;;;8.30;1.00;;;;;;5029361;28;20391;-54
2022/11/19 01:37:48;;;;;;;5.63;1.80;;;7.70;1.00;;;;;;5029149;28;20387;-53
2022/11/19 01:40:14;;;;;;;5.60;1.90;;;7.70;1.00;;;;;;5028251;28;20371;-53
2022/11/19 01:42:49;;;;;;;7.07;2.05;;;7.80;1.00;;;;;;5028594;28;20832;-53
2022/11/19 01:45:32;;;;;;;5.43;1.95;;;8.80;1.00;;;;;;5027683;28;20393;-53
2022/11/19 01:48:05;;;;;;;6.28;1.65;;;7.80;1.00;;;;;;5028214;28;20441;-56
2022/11/19 01:50:35;;;;;;;6.90;1.85;;;7.90;1.00;;;;;;5029000;28;20395;-53
2022/11/19 01:53:01;;;;;;;6.90;1.85;;;9.50;1.00;;;;;;5027787;28;20395;-53
2022/11/19 01:55:27;;;;;;;5.55;1.75;;;7.90;1.00;;;;;;5028634;28;20383;-55
2022/11/19 01:57:57;;;;;;;6.60;2.10;;;7.80;1.00;;;;;;5028706;28;20876;-60
2022/11/19 02:00:23;;;;;;;7.55;2.15;;;7.00;1.00;;;;;;5028782;28;20445;-52
2022/11/19 02:02:49;;;;;;;5.70;2.03;;;8.50;1.00;;;;;;5028742;28;20867;-52
2022/11/19 02:05:15;;;;;;;6.43;2.17;;;8.90;1.00;;;;;;5027556;28;20382;-53
2022/11/19 02:07:46;;;;;;;7.00;2.00;;;7.70;1.00;;;;;;5028755;28;20472;-56
2022/11/19 02:10:12;;;;;;;5.60;2.00;;;7.60;1.00;;;;;;5026502;28;20409;-53
2022/11/19 02:13:02;;;;;;;4.90;1.80;;;7.70;1.00;;;;;;5001346;28;20455;-53
2022/11/19 02:15:56;;;;;;;6.03;1.90;;;7.60;1.00;;;;;;4989317;28;20398;-53
2022/11/19 02:18:21;;;;;;;5.38;1.65;;;7.60;1.00;;;;;;4989132;28;20387;-53
2022/11/19 02:21:12;;;;;;;6.13;1.50;;;7.60;1.00;;;;;;4989095;28;20737;-53
2022/11/19 02:23:56;;;;;;;6.10;1.90;;;7.60;1.00;;;;;;4989456;28;20461;-53
2022/11/19 02:26:49;;;;;;;5.32;1.70;;;7.60;1.00;;;;;;4988952;28;20466;-53
2022/11/19 02:29:26;;;;;;;7.20;1.75;;;7.50;1.00;;;;;;4987872;28;20523;-54
2022/11/19 02:32:04;;;;;;;5.10;1.95;;;7.50;1.00;;;;;;4988743;28;20469;-53
2022/11/19 02:34:57;;;;;;;5.20;1.33;;;8.00;1.00;;;;;;4971307;28;20393;-54
2022/11/19 02:37:42;;;;;;;4.70;1.63;;;7.60;1.00;;;;;;4989073;28;20394;-53
2022/11/19 02:40:22;;;;;;;5.43;1.40;;;7.70;1.00;;;;;;4988244;28;20433;-54
2022/11/19 02:43:15;;;;;;;5.10;1.42;;;7.70;1.00;;;;;;4988996;28;20406;-53
2022/11/19 02:45:50;;;;;;;4.95;1.40;;;7.60;1.00;;;;;;5010978;28;20522;-53
2022/11/19 02:48:32;;;;;;;5.30;1.40;;;7.60;1.00;;;;;;5012316;28;20434;-54
2022/11/19 02:51:01;;;;;;;5.60;1.60;;;7.50;1.00;;;;;;5017620;28;20395;-57
2022/11/19 02:53:27;;;;;;;6.05;1.67;;;7.50;1.00;;;;;;5018294;28;20409;-53
2022/11/19 02:56:11;;;;;;;6.63;1.40;;;7.50;1.00;;;;;;5020437;28;20408;-53
2022/11/19 03:04:31;;;;;;;5.13;1.30;;;9.10;1.00;;;;;;4989063;28;20379;-54
2022/11/19 03:07:09;;;;;;;6.13;1.50;;;8.80;1.00;;;;;;5021817;28;20419;-60
2022/11/19 03:09:40;;;;;;;4.70;1.30;;;7.50;1.00;;;;;;5012732;28;20460;-54
2022/11/19 03:12:47;;;;;;;4.80;1.20;;;7.60;1.00;;;;;;5010973;28;20427;-54
2022/11/19 03:18:34;;;;;;;4.78;1.55;;;7.70;1.00;;;;;;5011497;28;20380;-54
2022/11/19 03:21:23;;;;;;;5.10;1.30;;;7.70;1.00;;;;;;5011293;28;20388;-53
2022/11/19 03:24:05;;;;;;;5.32;1.40;;;7.70;1.00;;;;;;5011999;28;20376;-53
2022/11/19 03:26:47;;;;;;;5.00;1.30;;;7.70;1.00;;;;;;5011716;28;20377;-54
2022/11/19 03:29:14;;;;;;;4.50;1.10;;;7.80;1.00;;;;;;5011139;28;20442;-53
2022/11/19 03:31:46;;;;;;;4.95;1.30;;;7.80;1.00;;;;;;5011108;28;20805;-53
2022/11/19 03:34:17;;;;;;;4.15;1.02;;;7.70;1.00;;;;;;5011131;28;20834;-53
2022/11/19 03:36:46;;;;;;;4.65;1.30;;;7.70;1.00;;;;;;5011442;28;20926;-53
2022/11/19 03:39:18;;;;;;;7.00;1.50;;;9.20;1.00;;;;;;5010453;28;20384;-53
2022/11/19 03:41:46;;;;;;;4.60;1.20;;;7.80;1.00;;;;;;5010266;28;20425;-53
2022/11/19 03:44:44;;;;;;;5.45;1.33;;;9.40;1.00;;;;;;5002892;28;20390;-53
2022/11/19 03:47:31;;;;;;;5.00;1.50;;;7.70;1.00;;;;;;4981825;28;20439;-54
2022/11/19 03:50:03;;;;;;;5.25;1.33;;;8.70;1.00;;;;;;5010117;28;20381;-59
2022/11/19 03:52:29;;;;;;;5.32;1.20;;;7.70;1.00;;;;;;4991395;28;20422;-52
2022/11/19 03:54:55;;;;;;;5.30;1.17;;;7.80;1.00;;;;;;4991732;28;20729;-52
2022/11/19 03:57:22;;;;;;;4.80;1.30;;;7.90;1.00;;;;;;4991000;28;20724;-52
2022/11/19 03:59:48;;;;;;;4.50;1.10;;;7.90;1.00;;;;;;4990842;28;20745;-52
2022/11/19 04:02:14;;;;;;;4.93;1.25;;;8.00;1.00;;;;;;4990322;28;20391;-53
2022/11/19 04:04:40;;;;;;;5.97;1.33;;;7.90;1.00;;;;;;4991156;28;20390;-52
2022/11/19 04:07:12;;;;;;;5.20;1.20;;;8.00;1.00;;;;;;5007174;28;20389;-52
2022/11/19 04:09:39;;;;;;;4.87;1.10;;;8.10;1.00;;;;;;5010441;28;20802;-52
2022/11/19 04:12:06;;;;;;;4.68;1.20;;;8.60;1.00;;;;;;5009780;28;20412;-52
2022/11/19 04:14:32;;;;;;;5.50;1.15;;;8.20;1.00;;;;;;5010329;28;20893;-52
2022/11/19 04:16:57;;;;;;;5.90;1.08;;;8.10;1.00;;;;;;5010139;28;20389;-59
2022/11/19 04:19:23;;;;;;;5.60;1.10;;;8.10;1.00;;;;;;5009662;28;20385;-53
2022/11/19 04:21:49;;;;;;;5.00;1.10;;;8.10;1.00;;;;;;5010509;28;20742;-53
2022/11/19 04:24:15;;;;;;;5.20;1.00;;;8.10;1.00;;;;;;5009567;28;20396;-53
2022/11/19 04:26:41;;;;;;;6.13;0.95;;;8.10;1.00;;;;;;5010162;28;20381;-53
2022/11/19 04:29:06;;;;;;;4.70;1.30;;;8.20;1.00;;;;;;5009493;28;20388;-53
2022/11/19 04:31:32;;;;;;;4.90;1.30;;;8.10;1.00;;;;;;5010264;28;20455;-53
2022/11/19 04:33:57;;;;;;;5.10;1.10;;;8.10;1.00;;;;;;5004466;28;20498;-60
2022/11/19 04:36:23;;;;;;;5.22;1.45;;;8.10;1.00;;;;;;4990386;28;20844;-54
2022/11/19 04:38:49;;;;;;;5.27;1.03;;;8.20;1.00;;;;;;4990057;28;20748;-53
2022/11/19 04:41:14;;;;;;;4.83;1.23;;;8.10;1.00;;;;;;4989179;28;20401;-53
2022/11/19 04:43:40;;;;;;;4.50;1.10;;;8.90;1.00;;;;;;4990483;28;20538;-53
2022/11/19 04:46:05;;;;;;;4.70;1.20;;;8.00;1.00;;;;;;4989835;28;20470;-53
2022/11/19 04:48:31;;;;;;;4.78;1.10;;;8.00;1.00;;;;;;4990236;28;20876;-53
2022/11/19 04:50:56;;;;;;;5.03;1.50;;;10.00;1.00;;;;;;4989917;28;20813;-58
2022/11/19 04:53:22;;;;;;;6.20;1.50;;;8.00;1.00;;;;;;4989552;28;20403;-53
2022/11/19 04:55:48;;;;;;;5.13;1.33;;;8.00;1.00;;;;;;4990279;28;20733;-53
2022/11/19 04:58:14;;;;;;;5.10;1.45;;;8.10;1.00;;;;;;4988940;28;20414;-53
2022/11/19 05:00:39;;;;;;;5.20;1.50;;;8.10;1.00;;;;;;4989997;28;20445;-53
2022/11/19 05:03:05;;;;;;;4.53;1.33;;;8.40;1.00;;;;;;4989435;28;20382;-53
2022/11/19 05:05:31;;;;;;;4.85;1.45;;;8.10;1.00;;;;;;4989675;28;20415;-53
2022/11/19 05:07:56;;;;;;;4.60;1.30;;;9.70;1.00;;;;;;4989845;28;20378;-58
2022/11/19 05:10:22;;;;;;;4.75;1.17;;;8.00;1.00;;;;;;4989118;28;20398;-54
2022/11/19 05:12:48;;;;;;;4.73;1.30;;;8.00;1.00;;;;;;4989097;28;20473;-52
2022/11/19 05:15:14;;;;;;;4.60;1.20;;;8.10;1.00;;;;;;4989065;28;20450;-53
2022/11/19 05:17:39;;;;;;;5.88;1.40;;;8.10;1.00;;;;;;4990093;28;20427;-53
2022/11/19 05:20:06;;;;;;;5.53;1.20;;;8.20;1.00;;;;;;4988832;28;20429;-53
2022/11/19 05:22:31;;;;;;;5.27;1.20;;;8.20;1.00;;;;;;4989271;28;20431;-53
2022/11/19 05:24:57;;;;;;;5.00;1.65;;;8.20;1.00;;;;;;4989959;28;20781;-60
2022/11/19 05:27:22;;;;;;;5.70;1.37;;;9.30;1.00;;;;;;4988954;28;20394;-53
2022/11/19 05:29:48;;;;;;;4.63;1.20;;;8.30;1.00;;;;;;4989615;28;20398;-53
2022/11/19 05:32:14;;;;;;;4.80;1.30;;;8.80;1.00;;;;;;4988937;28;20410;-53
2022/11/19 05:34:39;;;;;;;4.82;1.38;;;8.20;1.00;;;;;;4989666;28;20749;-53
2022/11/19 05:37:05;;;;;;;8.70;1.30;;;8.10;1.00;;;;;;4989124;28;20386;-53
2022/11/19 05:39:30;;;;;;;4.70;1.20;;;8.10;1.00;;;;;;4989897;28;20872;-53
2022/11/19 05:41:56;;;;;;;5.30;0.90;;;8.10;1.00;;;;;;4989183;28;20403;-53
2022/11/19 05:44:21;;;;;;;4.93;1.43;;;8.00;1.00;;;;;;4988863;28;20395;-53
2022/11/19 05:46:47;;;;;;;6.80;1.40;;;7.90;1.00;;;;;;4989567;28;20714;-53
2022/11/19 05:49:12;;;;;;;4.43;1.10;;;7.90;1.00;;;;;;4988486;28;20405;-55
2022/11/19 05:51:38;;;;;;;4.80;1.20;;;7.90;1.00;;;;;;4988760;28;20414;-54
2022/11/19 05:54:04;;;;;;;5.90;1.40;;;7.90;1.00;;;;;;5024409;28;20482;-54
2022/11/19 05:56:29;;;;;;;4.40;1.10;;;7.90;1.00;;;;;;5028693;28;20390;-53
2022/11/19 05:58:55;;;;;;;5.23;1.10;;;7.90;1.00;;;;;;5028781;28;20713;-55
2022/11/19 06:01:28;;;;;;;5.32;1.20;;;8.50;1.00;;;;;;5017497;28;20555;-53
2022/11/19 06:03:54;;;;;;;4.80;1.23;;;8.20;1.00;;;;;;5008758;28;20392;-53
2022/11/19 06:06:20;;;;;;;5.00;1.30;;;7.90;1.00;;;;;;5007929;28;20979;-53
2022/11/19 06:08:47;;;;;;;6.80;1.30;;;7.90;1.00;;;;;;5008784;28;20373;-53
2022/11/19 06:13:57;;;;;;;4.93;1.23;;;8.50;1.00;;;;;;5008826;28;20383;-53
2022/11/19 06:16:22;;;;;;;4.70;1.02;;;8.60;1.00;;;;;;5004612;28;20495;-55
2022/11/19 06:18:48;;;;;;;5.80;0.97;;;7.90;1.00;;;;;;5008191;28;20389;-53
2022/11/19 06:21:14;;;;;;;5.70;1.00;;;8.00;1.00;;;;;;5007413;28;20385;-53
2022/11/19 06:23:39;;;;;;;5.50;1.20;;;8.00;1.00;;;;;;5007640;28;20458;-53
2022/11/19 06:26:08;;;;;;;4.78;1.20;;;8.10;1.00;;;;;;5012309;28;20610;-53
2022/11/19 06:28:34;;;;;;;4.60;1.10;;;8.10;1.00;;;;;;5016446;28;20387;-53
2022/11/19 06:31:00;;;;;;;6.70;1.40;;;8.10;1.00;;;;;;5019817;28;20810;-60
2022/11/19 06:33:25;;;;;;;4.47;1.17;;;8.00;1.00;;;;;;5021207;28;20428;-54
2022/11/19 06:35:51;;;;;;;4.80;1.30;;;8.00;1.00;;;;;;5022486;28;20726;-53
2022/11/19 06:38:17;;;;;;;5.20;1.38;;;8.00;1.00;;;;;;5017853;28;20399;-54
2022/11/19 06:40:45;;;;;;;4.60;1.30;;;8.00;1.00;;;;;;5020263;28;20716;-54
2022/11/19 06:43:11;;;;;;;4.95;1.50;;;7.90;1.00;;;;;;5021609;28;20799;-54
2022/11/19 06:45:36;;;;;;;4.87;1.37;;;7.90;1.00;;;;;;5021957;28;20400;-54
2022/11/19 06:48:02;;;;;;;5.40;1.40;;;7.90;1.00;;;;;;5020889;28;20562;-60
2022/11/19 06:50:29;;;;;;;4.78;1.10;;;7.70;1.00;;;;;;5018611;28;20718;-54
2022/11/19 06:52:54;;;;;;;4.72;1.10;;;7.80;1.00;;;;;;5021906;28;20880;-55
2022/11/19 06:55:20;;;;;;;5.87;1.33;;;8.90;1.00;;;;;;5021091;28;20464;-60
2022/11/19 06:57:45;;;;;;;5.30;1.60;;;7.80;1.00;;;;;;5011230;28;20385;-55
2022/11/19 07:00:12;;;;;;;5.20;1.50;;;7.70;1.00;;;;;;5005731;28;20905;-55
2022/11/19 07:02:37;;;;;;;5.50;1.27;;;7.70;1.00;;;;;;5008651;28;20409;-53
2022/11/19 07:05:04;;;;;;;6.00;1.77;;;7.70;1.00;;;;;;5004323;28;22675;-60
2022/11/19 07:07:30;;;;;;;5.65;1.50;;;7.70;1.00;;;;;;5003576;28;20730;-54
2022/11/19 07:09:56;;;;;;;5.82;1.50;;;7.70;1.00;;;;;;5003328;28;20494;-55
2022/11/19 07:12:21;;;;;;;5.03;1.30;;;7.70;1.00;;;;;;5003142;28;20953;-55
2022/11/19 07:14:47;;;;;;;6.00;1.80;;;7.70;1.00;;;;;;4999876;28;20815;-54
2022/11/19 07:17:13;;;;;;;5.13;1.70;;;7.60;1.00;;;;;;4989381;28;20806;-54
2022/11/19 07:19:38;;;;;;;6.20;1.40;;;7.60;1.00;;;;;;5007388;28;20484;-54
2022/11/19 07:22:04;;;;;;;6.27;1.70;;;7.60;1.00;;;;;;5007342;28;20407;-61
2022/11/19 07:24:29;;;;;;;6.50;1.70;;;7.60;1.00;;;;;;5002240;28;20527;-54
2022/11/19 07:26:55;;;;;;;5.40;1.90;;;7.60;1.00;;;;;;4999892;28;20421;-54
2022/11/19 07:29:21;;;;;;;6.28;1.88;;;7.60;1.00;;;;;;4996328;28;20592;-55
2022/11/19 07:31:49;;;;;;;5.93;2.10;;;7.60;1.00;;;;;;4999172;28;20450;-54
2022/11/19 07:34:15;;;;;;;5.50;1.80;;;7.60;1.00;;;;;;5001083;28;20475;-55
2022/11/19 07:36:41;;;;;;;5.90;1.80;;;7.70;1.00;;;;;;5006636;28;20433;-55
2022/11/19 07:39:08;;;;;;;7.40;1.90;;;7.90;1.00;;;;;;5003425;28;20908;-58
2022/11/19 07:44:17;;;;;;;5.53;1.70;;;8.10;1.00;;;;;;5001500;28;20505;-54
2022/11/19 07:46:43;;;;;;;5.00;1.50;;;8.20;1.00;;;;;;5002760;28;20928;-54
2022/11/19 07:49:09;;;;;;;6.00;2.00;;;8.30;1.00;;;;;;5000011;28;20415;-54
2022/11/19 07:51:35;;;;;;;6.03;1.80;;;8.30;1.00;;;;;;4999348;28;20893;-55
2022/11/19 07:54:00;;;;;;;5.65;1.70;;;8.30;1.00;;;;;;5001023;28;20715;-61
2022/11/19 07:56:26;;;;;;;6.50;2.20;;;8.30;1.00;;;;;;4998678;28;20401;-54
2022/11/19 07:58:52;;;;;;;6.40;2.03;;;8.30;1.00;;;;;;5004851;28;20821;-53
2022/11/19 08:01:20;;;;;;;5.60;1.80;;;8.30;1.00;;;;;;5001480;28;20508;-53
2022/11/19 08:03:47;;;;;;;7.28;2.08;;;8.30;1.00;;;;;;5001566;28;20417;-54
2022/11/19 08:06:14;;;;;;;5.70;1.80;;;8.50;1.00;;;;;;5000280;28;21087;-54
2022/11/19 08:08:41;;;;;;;7.55;2.00;;;8.60;1.00;;;;;;4998939;28;20431;-54
2022/11/19 08:11:09;;;;;;;7.63;2.10;;;8.70;1.00;;;;;;4983934;28;20478;-59
2022/11/19 08:13:35;;;;;;;5.78;1.77;;;9.00;1.00;;;;;;4999617;28;20883;-54
2022/11/19 08:16:03;;;;;;;6.70;2.00;;;9.30;99.90;;;;;;5005715;28;20409;-60
2022/11/19 08:18:29;;;;;;;5.60;1.90;;;9.60;99.90;;;;;;5003289;28;20392;-56
2022/11/19 08:21:01;;;;;;;4.93;1.80;;;10.10;99.90;;;;;;4996624;28;20407;-54
2022/11/19 08:23:26;;;;;;;6.15;1.80;;;10.50;1.00;;;;;;4998808;28;20423;-54
2022/11/19 08:25:52;;;;;;;6.27;1.87;;;12.00;1.00;;;;;;4999750;28;20393;-54
2022/11/19 08:28:17;;;;;;;5.93;1.70;;;12.30;99.90;;;;;;4997454;28;20878;-54
2022/11/19 08:30:44;;;;;;;6.20;1.40;;;12.60;99.90;;;;;;5002728;28;20424;-55
2022/11/19 08:33:10;;;;;;;5.90;1.60;;;;;;;;;;5004872;28;20409;-53
2022/11/19 08:35:36;;;;;;;8.60;1.80;;;;;;;;;;5002907;28;20423;-54
2022/11/19 08:38:02;;;;;;;6.97;1.60;;;;;;;;;;5000809;28;20391;-61
2022/11/19 08:40:28;;;;;;;6.00;1.50;;;15.50;1.00;;;;;;5003462;28;20392;-54
2022/11/19 08:42:59;;;;;;;5.20;1.30;;;15.10;1.00;;;;;;5001221;28;20430;-54
2022/11/19 08:45:36;;;;;;;6.22;1.73;;;14.20;1.00;;;;;;5005467;28;20394;-55
2022/11/19 08:48:05;;;;;;;5.35;1.65;;;13.00;1.00;;;;;;4995501;28;20464;-61
2022/11/19 08:50:30;;;;;;;5.70;1.70;;;12.40;1.00;;;;;;4998271;28;20501;-54
2022/11/19 08:52:58;;;;;;;9.23;3.10;;;11.70;1.00;;;;;;5002879;28;20520;-55
2022/11/19 08:55:25;;;;;;;6.03;1.83;;;11.50;1.00;;;;;;4994978;28;20513;-58
2022/11/19 08:57:50;;;;;;;5.90;1.70;;;11.40;1.00;;;;;;4993497;28;20401;-57
2022/11/19 09:00:19;;;;;;;8.27;1.70;;;11.30;1.00;;;;;;4999595;28;20435;-55
2022/11/19 09:02:45;;;;;;;6.70;1.80;;;11.00;16.50;;;;;;5002544;28;20408;-56
2022/11/19 09:05:11;;;;;;;5.72;1.85;;;10.90;99.90;;;;;;5001690;28;20412;-53
2022/11/19 09:07:37;;;;;;;6.53;1.90;;;10.90;1.00;;;;;;4989629;28;20499;-57
2022/11/19 09:10:03;;;;;;;6.00;1.80;;;10.80;1.00;;;;;;5006426;28;20404;-60
2022/11/19 09:12:29;;;;;;;6.40;1.67;;;10.30;1.00;;;;;;5005697;28;20432;-53
2022/11/19 09:14:54;;;;;;;5.50;1.70;;;10.50;1.00;;;;;;5006150;28;20894;-57
2022/11/19 09:17:20;;;;;;;5.93;1.70;;;10.90;65.70;;;;;;5004547;28;20401;-59
2022/11/19 09:19:46;;;;;;;6.63;2.15;;;11.20;1.00;;;;;;5004866;28;20429;-53
2022/11/19 09:22:11;;;;;;;6.47;2.00;;;11.20;1.00;;;;;;5007144;28;20818;-54
2022/11/19 09:24:37;;;;;;;6.73;2.00;;;11.00;99.90;;;;;;5002717;28;20396;-53
2022/11/19 09:27:02;;;;;;;5.68;1.70;;;10.80;1.00;;;;;;5006348;28;20405;-60
2022/11/19 09:29:28;;;;;;;9.90;3.23;;;10.70;1.00;;;;;;5004571;28;20424;-53
2022/11/19 09:31:54;;;;;;;10.17;2.67;;;10.70;1.00;;;;;;5005091;28;20416;-53
2022/11/19 09:34:19;;;;;;;6.70;2.15;;;10.60;99.90;;;;;;5005235;28;20459;-53
2022/11/19 09:36:45;;;;;;;5.97;1.83;;;10.50;1.00;;;;;;5007861;28;20885;-53
2022/11/19 09:39:11;;;;;;;7.70;1.92;;;10.40;99.90;;;;;;5008112;28;20439;-53
2022/11/19 09:41:46;;;;;;;7.70;2.63;;;10.30;1.00;;;;;;4996640;28;20766;-56
2022/11/19 09:44:18;;;;;;;7.90;2.45;;;10.30;99.90;;;;;;5007459;28;20408;-54
2022/11/19 09:47:21;;;;;;;6.22;1.73;;;10.20;99.90;;;;;;4995787;28;20819;-54
2022/11/19 09:50:00;;;;;;;20.00;9.40;;;10.20;1.00;;;;;;4995985;28;20519;-54
2022/11/19 09:52:32;;;;;;;6.05;2.17;;;10.40;99.90;;;;;;5004184;28;20413;-52
2022/11/19 09:54:59;;;;;;;5.90;1.77;;;10.50;1.00;;;;;;5000582;28;20444;-53
2022/11/19 09:57:35;;;;;;;6.80;2.13;;;10.50;1.00;;;;;;5000481;28;20401;-53
2022/11/19 10:00:03;;;;;;;6.22;1.88;;;10.60;1.00;;;;;;4993548;28;20406;-60
2022/11/19 10:02:28;;;;;;;7.60;1.63;;;10.70;99.90;;;;;;5002169;28;20395;-55
2022/11/19 10:04:54;;;;;;;5.40;1.30;;;10.60;99.90;;;;;;5012950;28;20384;-54
2022/11/19 10:07:48;;;;;;;5.70;1.80;;;10.50;14.20;;;;;;5002489;28;20402;-54
2022/11/19 10:10:40;;;;;;;6.55;1.75;;;10.50;99.90;;;;;;4995276;28;20430;-55
2022/11/19 10:13:27;;;;;;;5.75;1.90;;;10.40;1.00;;;;;;5004217;28;20459;-55
2022/11/19 10:16:04;;;;;;;5.75;1.58;;;10.40;1.00;;;;;;4989063;28;20382;-55
2022/11/19 10:18:41;;;;;;;8.43;1.60;;;10.40;1.00;;;;;;4989152;28;20510;-53
2022/11/19 10:21:22;;;;;;;6.50;1.55;;;10.30;1.00;;;;;;5022328;28;20444;-54
2022/11/19 10:23:51;;;;;;;5.47;1.45;;;10.40;1.00;;;;;;5028750;28;20391;-53
2022/11/19 10:26:25;;;;;;;6.80;1.50;;;10.50;1.00;;;;;;5027779;28;20486;-53
2022/11/19 10:28:56;;;;;;;5.72;1.58;;;10.30;1.00;;;;;;5028857;28;20522;-54
2022/11/19 10:31:35;;;;;;;6.10;1.70;;;10.20;1.00;;;;;;5027847;28;21047;-53
2022/11/19 10:34:26;;;;;;;7.60;1.80;;;9.90;1.00;;;;;;5028739;28;20415;-59
2022/11/19 10:37:07;;;;;;;5.50;1.50;;;9.90;99.90;;;;;;5028375;28;20395;-55
2022/11/19 10:39:38;;;;;;;6.65;1.70;;;9.90;99.90;;;;;;5028369;28;20383;-54
2022/11/19 10:42:11;;;;;;;6.90;1.40;;;9.90;99.90;;;;;;5027480;28;20479;-61
2022/11/19 10:44:45;;;;;;;5.47;1.40;;;9.80;1.00;;;;;;5028536;28;20395;-54
2022/11/19 10:47:32;;;;;;;5.80;1.60;;;9.80;99.90;;;;;;5027653;28;20399;-55
2022/11/19 10:49:57;;;;;;;5.60;1.50;;;9.70;1.00;;;;;;5027995;28;20782;-54
2022/11/19 10:52:35;;;;;;;8.10;1.50;;;9.60;99.90;;;;;;5025942;28;20450;-55
2022/11/19 10:55:53;;;;;;;4.97;1.42;;;9.70;1.00;;;;;;5002794;28;20651;-54
2022/11/19 10:58:23;;;;;;;5.13;1.20;;;9.70;99.90;;;;;;4976395;28;20408;-54
2022/11/19 11:00:52;;;;;;;4.50;1.10;;;9.70;99.90;;;;;;5015278;28;20415;-54
2022/11/19 11:03:23;;;;;;;6.70;1.43;;;9.80;55.80;;;;;;5007544;28;20416;-54
2022/11/19 11:05:56;;;;;;;6.80;1.50;;;9.80;1.00;;;;;;4990894;28;20758;-54
2022/11/19 11:08:22;;;;;;;4.75;1.20;;;9.50;99.90;;;;;;5010615;28;20461;-54
2022/11/19 11:10:49;;;;;;;4.80;1.25;;;9.50;1.00;;;;;;5010424;28;20406;-54
2022/11/19 11:16:15;;;;;;;6.03;1.30;;;9.60;99.90;;;;;;5016497;28;20537;-53
2022/11/19 11:18:41;;;;;;;6.80;1.60;;;10.60;99.90;;;;;;5020954;28;20397;-53
2022/11/19 11:21:12;;;;;;;5.95;1.40;;;9.60;1.00;;;;;;5018885;28;20692;-57
2022/11/19 11:23:52;;;;;;;6.00;1.20;;;9.70;1.00;;;;;;5022193;28;20462;-54
2022/11/19 11:26:25;;;;;;;4.90;1.17;;;9.50;1.00;;;;;;5018102;28;20384;-53
2022/11/19 11:29:12;;;;;;;5.70;1.60;;;9.70;99.90;;;;;;5022620;28;20398;-53
2022/11/19 11:31:43;;;;;;;9.70;2.00;;;9.80;1.00;;;;;;5020255;28;20674;-53
2022/11/19 11:34:31;;;;;;;5.10;1.50;;;9.90;1.00;;;;;;5017960;28;20476;-53
2022/11/19 11:36:59;;;;;;;6.22;1.50;;;9.80;99.90;;;;;;5018429;28;20381;-50
2022/11/19 11:39:37;;;;;;;5.60;1.50;;;9.70;1.00;;;;;;5019160;28;20375;-52
2022/11/19 11:42:04;;;;;;;4.70;0.98;;;9.70;99.90;;;;;;5019528;28;20429;-55
2022/11/19 11:44:35;;;;;;;5.70;1.30;;;9.50;1.00;;;;;;5011540;28;20416;-52
2022/11/19 11:47:15;;;;;;;5.78;1.48;;;9.50;99.90;;;;;;5001513;28;20477;-51
2022/11/19 11:49:44;;;;;;;5.70;1.30;;;9.50;1.00;;;;;;4984358;28;20419;-53
2022/11/19 11:52:21;;;;;;;5.35;1.40;;;9.40;1.00;;;;;;5000686;28;20441;-52
2022/11/19 11:55:14;;;;;;;5.20;1.33;;;9.50;1.00;;;;;;4992455;28;20751;-53
2022/11/19 11:58:04;;;;;;;4.95;1.27;;;9.70;1.00;;;;;;4991532;28;20414;-54
2022/11/19 12:00:37;;;;;;;6.00;1.38;;;9.70;3.40;;;;;;4984368;28;20484;-51
2022/11/19 12:03:08;;;;;;;5.90;1.80;;;9.40;99.90;;;;;;4992415;28;20402;-51
2022/11/19 12:05:59;;;;;;;4.60;1.20;;;9.50;1.00;;;;;;5000067;28;20424;-52
2022/11/19 12:08:33;;;;;;;6.43;1.58;;;9.50;99.90;;;;;;4994091;28;20664;-53
2022/11/19 12:11:07;;;;;;;6.88;1.70;;;9.50;93.10;;;;;;4999587;28;20961;-52
2022/11/19 12:13:41;;;;;;;5.40;1.50;;;9.60;23.20;;;;;;5001612;28;20470;-53
2022/11/19 12:16:20;;;;;;;5.60;1.50;;;9.50;99.90;;;;;;5011294;28;20414;-61
2022/11/19 12:19:05;;;;;;;5.40;1.40;;;9.50;99.90;;;;;;4999371;28;20412;-57
2022/11/19 12:21:39;;;;;;;7.32;1.70;;;9.40;99.90;;;;;;5007568;28;20774;-52
2022/11/19 12:24:26;;;;;;;7.35;1.60;;;9.60;99.90;;;;;;4980302;28;20401;-58
2022/11/19 12:27:33;;;;;;;5.78;1.90;;;9.60;1.00;;;;;;4988174;28;20417;-52
2022/11/19 12:30:19;;;;;;;5.10;1.30;;;9.40;99.90;;;;;;4963120;28;20445;-54
2022/11/19 12:32:55;;;;;;;10.00;1.60;;;9.40;1.00;;;;;;4954317;28;20467;-54
2022/11/19 12:35:45;;;;;;;7.40;2.00;;;9.30;32.40;;;;;;4976405;28;20752;-55
2022/11/19 12:38:29;;;;;;;7.85;2.30;;;9.30;99.90;;;;;;4994948;28;20447;-56
2022/11/19 12:41:03;;;;;;;6.30;2.10;;;9.40;1.00;;;;;;4999463;28;20884;-54
2022/11/19 12:43:51;;;;;;;9.20;2.50;;;9.20;99.90;;;;;;5005862;28;20420;-54
2022/11/19 12:46:29;;;;;;;7.93;2.40;;;9.10;1.00;;;;;;4997167;28;20388;-54
2022/11/19 12:48:55;;;;;;;6.00;2.30;;;9.20;1.00;;;;;;5008795;28;20493;-55
2022/11/19 12:51:57;;;;;;;6.60;2.00;;;9.30;1.00;;;;;;4990660;28;20979;-56
2022/11/19 12:54:26;;;;;;;5.68;1.70;;;9.20;35.40;;;;;;4961835;28;20444;-54
2022/11/19 12:57:20;;;;;;;7.37;2.20;;;9.20;1.00;;;;;;5005000;28;20469;-56
2022/11/19 13:00:07;;;;;;;6.50;2.30;;;9.20;7.70;;;;;;4998082;28;21002;-54
2022/11/19 13:02:48;;;;;;;7.38;2.83;;;9.20;70.40;;;;;;5002277;28;20418;-53
2022/11/19 13:05:21;;;;;;;6.20;2.30;;;9.20;99.90;;;;;;5001978;28;20418;-53
2022/11/19 13:08:01;;;;;;;6.18;1.70;;;9.20;99.90;;;;;;5007601;28;20420;-57
2022/11/19 13:10:45;;;;;;;7.13;2.50;;;9.10;99.90;;;;;;4992101;28;20493;-52
2022/11/19 13:13:15;;;;;;;10.50;2.00;;;9.10;99.90;;;;;;5003853;28;20434;-53
2022/11/19 13:15:54;;;;;;;6.28;2.15;;;9.10;99.90;;;;;;5002355;28;20439;-53
2022/11/19 13:18:21;;;;;;;5.00;1.70;;;9.10;99.90;;;;;;4991294;28;20752;-53
2022/11/19 13:20:52;;;;;;;5.93;1.80;;;9.20;99.90;;;;;;4991574;28;20531;-54
2022/11/19 13:23:25;;;;;;;5.70;1.95;;;9.10;99.90;;;;;;4995967;28;20418;-54
2022/11/19 13:26:05;;;;;;;6.78;2.55;;;9.20;99.90;;;;;;4999160;28;20440;-56
2022/11/19 13:28:45;;;;;;;7.32;2.83;;;9.30;99.90;;;;;;5001823;28;20424;-58
2022/11/19 13:31:30;;;;;;;7.18;2.40;;;9.30;99.90;;;;;;4991697;28;20410;-53
2022/11/19 13:34:07;;;;;;;6.60;2.45;;;9.30;18.70;;;;;;5005292;28;20416;-53
2022/11/19 13:36:38;;;;;;;6.38;2.00;;;9.40;44.80;;;;;;4994839;28;20404;-53
2022/11/19 13:39:14;;;;;;;7.53;2.73;;;9.30;1.00;;;;;;5002029;28;20443;-53
2022/11/19 13:44:42;;;;;;;6.38;2.30;;;9.20;1.00;;;;;;5003028;28;20471;-52
2022/11/19 13:47:27;;;;;;;7.60;2.70;;;9.20;99.90;;;;;;4997002;28;20413;-61
2022/11/19 13:50:03;;;;;;;7.50;2.60;;;9.30;99.90;;;;;;4994884;28;20436;-56
2022/11/19 13:52:31;;;;;;;8.20;3.30;;;9.30;97.50;;;;;;4978315;28;20978;-54